Flight Track Log - Related Links

Times and Time Zones

All times are in EDT time to prevent confusion due to time zone crossing. See the N749PG flight status page for this flight to view local times or setup timezone preferences in your user account.

Time Position Orientation Groundspeed Altitude Reporting Facility
EDT Latitude Longitude Course Direction KTS MPH feet Rate Location/Type
Sat 09:02:26 AM 35.5778 -82.6136 338° Northwest 137 158 6,000  Level Indianapolis Center
Sat 09:03:28 AM 35.6125 -82.6308 338° Northwest 136 157 6,800 732 Climbing Indianapolis Center
Sat 09:04:00 AM 35.6915 -82.6540 338° Northwest  Level FlightAware Approximate
Sat 09:04:29 AM 35.6450 -82.6481 337° Northwest 131 151 7,500  Level Indianapolis Center
Sat 09:05:00 AM 35.7342 -82.6753 338° Northwest  Level FlightAware Approximate
Sat 09:05:31 AM 35.6806 -82.6664 337° Northwest 132 152 7,900  Level Indianapolis Center
Sat 09:06:00 AM 35.7769 -82.6966 338° Northwest  Level FlightAware Approximate
Sat 09:06:32 AM 35.7208 -82.6839 341° North 148 170 8,000  Level Indianapolis Center
Sat 09:07:00 AM 35.8196 -82.7179 338° Northwest  Level FlightAware Approximate
Sat 09:07:34 AM 35.7633 -82.7053 338° Northwest 162 186 8,000  Level Indianapolis Center
Sat 09:08:36 AM 35.8144 -82.7289 339° North 163 188 8,000 -49 Level Indianapolis Center
Sat 09:09:37 AM 35.8578 -82.7511 337° Northwest 165 190 7,900 -49 Descending Indianapolis Center
Sat 09:10:39 AM 35.9014 -82.7725 338° Northwest 165 190 7,900 48 Level Indianapolis Center
Sat 09:11:41 AM 35.9439 -82.7942 338° Northwest 166 191 8,000 49 Climbing Indianapolis Center
Sat 09:12:42 AM 35.9864 -82.8150 338° Northwest 165 190 8,000  Level Indianapolis Center
Sat 09:13:44 AM 36.0292 -82.8367 338° Northwest 165 190 8,000  Level Indianapolis Center
Sat 09:14:46 AM 36.0722 -82.8581 338° Northwest 165 190 8,000  Level Indianapolis Center
Sat 09:15:47 AM 36.1228 -82.8825 339° North 166 191 8,000  Level Indianapolis Center
Sat 09:16:49 AM 36.1658 -82.9036 338° Northwest 166 191 8,000  Level Indianapolis Center
Sat 09:17:51 AM 36.2089 -82.9258 337° Northwest 166 191 8,000  Level Indianapolis Center
Sat 09:18:53 AM 36.2528 -82.9464 339° North 166 191 8,000  Level Indianapolis Center
Sat 09:19:54 AM 36.2958 -82.9683 338° Northwest 166 191 8,000  Level Indianapolis Center
Sat 09:20:56 AM 36.3386 -82.9892 339° North 166 191 8,000  Level Indianapolis Center
Sat 09:21:58 AM 36.3811 -83.0103 338° Northwest 165 190 8,000  Level Indianapolis Center
Sat 09:22:59 AM 36.4303 -83.0364 337° Northwest 165 190 8,000  Level Indianapolis Center
Sat 09:24:01 AM 36.4761 -83.0569 340° North 168 193 8,000  Level Indianapolis Center
Sat 09:25:03 AM 36.5192 -83.0792 337° Northwest 168 193 8,000  Level Indianapolis Center
Sat 09:26:04 AM 36.5631 -83.1011 338° Northwest 168 193 8,000  Level Indianapolis Center
Sat 09:27:06 AM 36.6064 -83.1228 338° Northwest 168 193 8,000  Level Indianapolis Center
Sat 09:28:08 AM 36.6500 -83.1442 339° North 168 193 8,000  Level Indianapolis Center
Sat 09:29:09 AM 36.6925 -83.1658 338° Northwest 168 193 8,000  Level Indianapolis Center
Sat 09:30:11 AM 36.7353 -83.1878 338° Northwest 167 192 8,000  Level Indianapolis Center
Sat 09:31:13 AM 36.7858 -83.2125 339° North 167 192 8,000  Level Indianapolis Center
Sat 09:32:14 AM 36.8283 -83.2344 338° Northwest 167 192 8,000  Level Indianapolis Center
Sat 09:33:16 AM 36.8717 -83.2564 338° Northwest 167 192 8,000  Level Indianapolis Center
Sat 09:34:18 AM 36.9150 -83.2772 339° North 167 192 8,000  Level Indianapolis Center
Sat 09:35:20 AM 36.9578 -83.2989 338° Northwest 167 192 8,000  Level Indianapolis Center
Sat 09:36:21 AM 37.0008 -83.3217 337° Northwest 167 192 8,000  Level Indianapolis Center
Sat 09:37:23 AM 37.0442 -83.3425 339° North 167 192 8,000  Level Indianapolis Center
Sat 09:38:25 AM 37.0942 -83.3681 338° Northwest 167 192 8,000  Level Indianapolis Center
Sat 09:39:27 AM 37.1372 -83.3906 337° Northwest 166 191 8,000  Level Indianapolis Center
Sat 09:40:28 AM 37.1792 -83.4114 338° Northwest 166 191 8,000  Level Indianapolis Center
Sat 09:41:30 AM 37.2217 -83.4325 338° Northwest 166 191 8,000  Level Indianapolis Center
Sat 09:42:32 AM 37.2647 -83.4553 337° Northwest 166 191 8,000  Level Indianapolis Center
Sat 09:43:34 AM 37.3075 -83.4772 338° Northwest 166 191 8,000  Level Indianapolis Center
Sat 09:44:35 AM 37.3511 -83.4997 338° Northwest 166 191 8,000  Level Indianapolis Center
Sat 09:45:37 AM 37.4006 -83.5256 337° Northwest 166 191 8,000  Level Indianapolis Center
Sat 09:46:39 AM 37.4450 -83.5483 338° Northwest 167 192 8,000  Level Indianapolis Center
Sat 09:47:41 AM 37.4892 -83.5703 338° Northwest 167 192 8,000  Level Indianapolis Center
Sat 09:48:43 AM 37.5319 -83.5933 337° Northwest 167 192 8,000  Level Indianapolis Center
Sat 09:49:44 AM 37.5761 -83.6156 338° Northwest 167 192 8,000  Level Indianapolis Center
Sat 09:50:46 AM 37.6200 -83.6383 338° Northwest 168 193 8,000  Level Indianapolis Center
Sat 09:51:48 AM 37.6642 -83.6611 338° Northwest 168 193 8,000  Level Indianapolis Center
Sat 09:52:50 AM 37.7150 -83.6878 337° Northwest 168 193 8,000  Level Indianapolis Center
Sat 09:53:52 AM 37.7600 -83.7092 339° North 169 194 8,000  Level Indianapolis Center
Sat 09:54:53 AM 37.8044 -83.7314 338° Northwest 169 194 8,000  Level Indianapolis Center
Sat 09:55:55 AM 37.8472 -83.7558 336° Northwest 169 194 8,000  Level Indianapolis Center
Sat 09:56:57 AM 37.8908 -83.7772 339° North 169 194 8,000  Level Indianapolis Center
Sat 09:57:59 AM 37.9344 -83.8000 338° Northwest 169 194 8,000  Level Indianapolis Center
Sat 09:59:01 AM 37.9778 -83.8231 337° Northwest 169 194 8,000  Level Indianapolis Center
Sat 10:00:52 AM 38.0628 -83.8672 338° Northwest 134 154 8,000 -139 Level Indianapolis Center
Sat 10:01:54 AM 38.1081 -83.8906 338° Northwest 168 193 7,600 -439 Descending Indianapolis Center
Sat 10:02:55 AM 38.1572 -83.9142 339° North 181 208 7,100 -488 Descending Indianapolis Center
Sat 10:03:57 AM 38.2067 -83.9414 337° Northwest 187 215 6,600 -484 Descending Indianapolis Center
Sat 10:04:59 AM 38.2553 -83.9664 338° Northwest 189 217 6,100 -293 Descending Indianapolis Center
Sat 10:06:00 AM 38.3028 -83.9928 336° Northwest 189 217 6,000 -49 Descending Indianapolis Center
Sat 10:07:02 AM 38.3550 -84.0203 338° Northwest 179 206 6,000  Level Indianapolis Center
Sat 10:08:04 AM 38.3992 -84.0436 338° Northwest 175 201 6,000  Level Indianapolis Center
Sat 10:09:06 AM 38.4439 -84.0661 338° Northwest 175 201 6,000  Level Indianapolis Center
Sat 10:10:07 AM 38.4883 -84.0900 337° Northwest 175 201 6,000 -244 Level Indianapolis Center
Sat 10:11:09 AM 38.5381 -84.1181 336° Northwest 175 201 5,500 -484 Descending Indianapolis Center
Sat 10:12:11 AM 38.5792 -84.1497 329° Northwest 180 207 5,000 -532 Descending Indianapolis Center
Sat 10:13:13 AM 38.6367 -84.1736 342° North 182 209 4,400 -488 Descending Indianapolis Center
Sat 10:14:14 AM 38.6878 -84.1833 352° North 182 209 4,000 -195 Descending Indianapolis Center
Sat 10:15:16 AM 38.7364 -84.1992 346° North 182 209 4,000  Level Indianapolis Center
Sat 10:16:18 AM 38.7822 -84.2139 346° North 177 204 4,000  Level Indianapolis Center
Sat 10:17:20 AM 38.8233 -84.2275 346° North 174 200 4,000  Level Indianapolis Center
Sat 10:18:21 AM 38.8808 -84.2478 345° North 174 200 4,000  Level Indianapolis Center
Sat 10:19:23 AM 38.9267 -84.2639 345° North 174 200 4,000 -242 Level Indianapolis Center
Sat 10:20:25 AM 38.9706 -84.2917 334° Northwest 174 200 3,500 -341 Descending Indianapolis Center
Sat 10:21:26 AM 39.0131 -84.3206 332° Northwest 174 200 3,300 -583 Descending Indianapolis Center
Sat 10:23:20 AM 39.1000 -84.3500 345° North 130 150 1,800 -700 Descending Cincinnati TRACON
Sat 10:24:26 AM 39.1167 -84.3833 303° West 109 125 1,200 -545 Descending Cincinnati TRACON
Sat 10:26:00 AM 39.1033 -84.4186 244° Southwest  Level Estimated

Login

Don't have an account? Register now (free) for customized features, flight alerts, and more!